Rocksprings, Texas
Current Conditions -  °F | °C
As of 3:30 AM on Thursday 23 Oct 2014 (Local Time) from KECU Reporting Station
Broken Clouds Broken Clouds  
Wind Chill: 16°   Ceiling: 9500
Heat Index: 16°   Visibility: 8mi
Dew Point: 15°   Wind: 0mph
Humidity: 94%   Direction: NA
Pressure: 30.15"   Gusts: NA
Location:  30.02°N, 100.21°W
Report Text: KECU 230830Z AUTO 00000KT 8SM BKN095 16/15 A3015 RMK AO2
Loading
Personal Weather Stations






























Interactive Weather Map
Tropical Storm Tracking
New forecast layout! Learn more

10-Day Weather Forecast

Advertisements
Track Severe Weather on mobile